createdAt,value
2023-11-07T00:03:07.346Z,20.53
2023-11-07T00:08:10.261Z,20.48
2023-11-07T00:13:14.575Z,20.43
2023-11-07T00:18:17.471Z,20.36
2023-11-07T00:23:20.370Z,20.33
2023-11-07T00:28:26.568Z,20.29
2023-11-07T00:33:29.629Z,20.24
2023-11-07T00:38:32.727Z,20.21
2023-11-07T00:43:37.085Z,20.18
2023-11-07T00:48:40.011Z,20.14
2023-11-07T00:53:42.967Z,20.11
2023-11-07T00:58:48.715Z,20.07
2023-11-07T01:03:51.706Z,20.05
2023-11-07T01:08:54.675Z,20.03
2023-11-07T01:13:58.849Z,20.00
2023-11-07T01:19:02.080Z,19.98
2023-11-07T01:24:06.338Z,19.95
2023-11-07T01:29:10.556Z,19.93
2023-11-07T01:34:13.587Z,19.90
2023-11-07T01:39:16.538Z,19.89
2023-11-07T01:44:20.746Z,19.87
2023-11-07T01:49:24.036Z,19.85
2023-11-07T01:54:27.571Z,19.81
2023-11-07T01:59:31.924Z,19.80
2023-11-07T02:04:35.022Z,19.77
2023-11-07T02:09:37.939Z,19.74
2023-11-07T02:14:42.428Z,19.74
2023-11-07T02:19:45.356Z,19.70
2023-11-07T02:24:50.096Z,19.69
2023-11-07T02:29:52.944Z,19.66
2023-11-07T02:34:55.817Z,19.66
2023-11-07T02:40:00.792Z,19.63
2023-11-07T02:45:04.146Z,19.57
2023-11-07T02:50:08.994Z,19.58
2023-11-07T02:55:13.193Z,19.57
2023-11-07T03:00:16.922Z,19.55
2023-11-07T03:05:19.717Z,19.53
2023-11-07T03:10:23.894Z,19.53
2023-11-07T03:15:26.726Z,19.51
2023-11-07T03:20:29.538Z,19.49
2023-11-07T03:25:33.778Z,19.48
2023-11-07T03:30:36.598Z,19.47
2023-11-07T03:35:39.569Z,19.45
2023-11-07T03:40:43.990Z,19.41
2023-11-07T03:45:46.844Z,19.40
2023-11-07T03:50:50.879Z,19.40
2023-11-07T03:55:55.308Z,19.38
2023-11-07T04:00:58.666Z,19.38
2023-11-07T04:06:01.725Z,19.36
2023-11-07T04:11:06.672Z,19.35
2023-11-07T04:16:10.732Z,19.34
2023-11-07T04:21:14.178Z,19.33
2023-11-07T04:26:18.932Z,19.33
2023-11-07T04:31:24.190Z,19.32
2023-11-07T04:36:26.997Z,19.29
2023-11-07T04:41:31.521Z,19.28
2023-11-07T04:46:39.161Z,19.29
2023-11-07T04:51:42.652Z,19.29
2023-11-07T04:56:46.893Z,19.27
2023-11-07T05:01:50.656Z,19.26
2023-11-07T05:06:55.466Z,19.25
2023-11-07T05:12:00.564Z,19.23
2023-11-07T05:17:03.571Z,19.22
2023-11-07T05:22:06.717Z,19.22
2023-11-07T05:27:11.222Z,19.20
2023-11-07T05:32:14.590Z,19.19
2023-11-07T05:37:18.960Z,19.19
2023-11-07T05:42:23.308Z,19.16
2023-11-07T05:47:26.289Z,19.16
2023-11-07T05:52:29.465Z,19.16
2023-11-07T05:57:33.693Z,19.15
2023-11-07T06:02:47.759Z,19.14
2023-11-07T06:07:57.000Z,19.13
2023-11-07T06:13:04.626Z,19.11
2023-11-07T06:18:07.852Z,19.11
2023-11-07T06:23:10.924Z,19.10
2023-11-07T06:28:15.150Z,19.07
2023-11-07T06:33:18.185Z,19.07
2023-11-07T06:38:22.893Z,19.06
2023-11-07T06:43:27.610Z,19.07
2023-11-07T06:48:30.853Z,19.06
2023-11-07T06:53:34.054Z,19.07
2023-11-07T06:58:38.259Z,19.08
2023-11-07T07:03:41.450Z,19.10
2023-11-07T07:08:44.752Z,19.09
2023-11-07T07:13:49.095Z,19.09
2023-11-07T07:18:52.281Z,19.11
2023-11-07T07:23:56.006Z,19.12
2023-11-07T07:29:00.933Z,19.13
2023-11-07T07:34:06.109Z,19.11
2023-11-07T07:39:09.560Z,19.13
2023-11-07T07:44:14.429Z,19.14
2023-11-07T07:49:17.438Z,19.16
2023-11-07T07:54:43.296Z,19.21
2023-11-07T07:59:48.327Z,17.98
2023-11-07T08:04:52.189Z,17.37
2023-11-07T08:09:55.303Z,17.05
2023-11-07T08:14:59.687Z,17.20
2023-11-07T08:20:02.642Z,17.98
2023-11-07T08:25:07.055Z,18.32
2023-11-07T08:30:14.421Z,18.51
2023-11-07T08:35:19.643Z,18.67
2023-11-07T08:40:24.777Z,18.80
2023-11-07T08:45:30.133Z,18.91
2023-11-07T08:50:33.800Z,18.97
2023-11-07T08:55:37.921Z,19.02
2023-11-07T09:00:45.110Z,19.02
2023-11-07T09:05:48.972Z,19.04
2023-11-07T09:10:51.968Z,19.03
2023-11-07T09:15:56.647Z,19.04
2023-11-07T09:20:59.698Z,19.06
2023-11-07T09:26:04.377Z,19.08
2023-11-07T09:31:08.844Z,19.11
2023-11-07T09:36:11.989Z,19.27
2023-11-07T09:41:17.645Z,19.26
2023-11-07T09:46:25.084Z,19.28
2023-11-07T09:51:28.893Z,19.37
2023-11-07T09:56:33.018Z,19.36
2023-11-07T10:01:37.505Z,19.38
2023-11-07T10:06:40.581Z,19.45
2023-11-07T10:11:47.515Z,19.50
2023-11-07T10:16:58.190Z,19.46
2023-11-07T10:22:05.118Z,19.39
2023-11-07T10:27:12.995Z,19.40
2023-11-07T10:32:18.094Z,19.49
2023-11-07T10:37:22.346Z,19.46
2023-11-07T10:42:30.703Z,19.48
2023-11-07T10:47:39.275Z,19.47
2023-11-07T10:52:42.340Z,19.52
2023-11-07T10:57:50.998Z,19.60
2023-11-07T11:02:56.847Z,19.58
2023-11-07T11:08:01.290Z,19.58
2023-11-07T11:13:05.188Z,19.52
2023-11-07T11:18:11.800Z,19.47
2023-11-07T11:23:20.438Z,19.48
2023-11-07T11:28:38.136Z,19.44
2023-11-07T11:33:43.889Z,19.40
2023-11-07T11:38:47.411Z,19.39
2023-11-07T11:44:14.048Z,19.36
2023-11-07T11:49:19.347Z,19.34
2023-11-07T11:54:53.455Z,19.31
2023-11-07T12:00:00.303Z,19.31
2023-11-07T12:05:17.073Z,19.26
2023-11-07T12:10:22.093Z,19.24
2023-11-07T12:15:27.231Z,19.23
2023-11-07T12:20:32.797Z,19.30
2023-11-07T12:25:35.741Z,19.35
2023-11-07T12:30:38.628Z,19.38
2023-11-07T12:35:42.989Z,19.40
2023-11-07T12:40:45.908Z,19.41
2023-11-07T12:45:49.261Z,19.39
2023-11-07T12:50:54.182Z,19.38
2023-11-07T12:55:57.015Z,19.40
2023-11-07T13:01:00.445Z,19.44
2023-11-07T13:06:06.063Z,19.37
2023-11-07T13:11:10.555Z,19.35
2023-11-07T13:16:13.861Z,16.55
2023-11-07T13:21:18.801Z,15.98
2023-11-07T13:26:22.095Z,15.55
2023-11-07T13:31:24.955Z,17.18
2023-11-07T13:36:29.181Z,18.05
2023-11-07T13:41:33.533Z,18.49
2023-11-07T13:46:36.384Z,18.62
2023-11-07T13:51:40.749Z,18.73
2023-11-07T13:56:43.635Z,18.79
2023-11-07T14:01:46.641Z,18.87
2023-11-07T14:06:50.970Z,18.90
2023-11-07T14:11:54.163Z,18.97
2023-11-07T14:16:57.443Z,19.02
2023-11-07T14:22:01.871Z,19.03
2023-11-07T14:27:06.625Z,19.03
2023-11-07T14:32:09.820Z,19.00
2023-11-07T14:37:14.262Z,19.06
2023-11-07T14:42:17.629Z,19.07
2023-11-07T14:47:22.876Z,19.05
2023-11-07T14:52:29.099Z,19.02
2023-11-07T14:57:32.086Z,18.99
2023-11-07T15:02:35.973Z,18.98
2023-11-07T15:07:40.321Z,18.96
2023-11-07T15:12:43.238Z,18.92
2023-11-07T15:17:46.205Z,18.90
2023-11-07T15:22:50.417Z,18.89
2023-11-07T15:27:53.427Z,18.86
2023-11-07T15:32:58.528Z,18.87
2023-11-07T15:38:03.554Z,18.88
2023-11-07T15:43:06.920Z,18.86
2023-11-07T15:48:11.651Z,18.88
2023-11-07T15:53:16.549Z,18.84
2023-11-07T15:58:19.336Z,18.88
2023-11-07T16:03:22.360Z,18.87
2023-11-07T16:08:27.196Z,18.87
2023-11-07T16:13:30.535Z,18.88
2023-11-07T16:18:33.504Z,18.91
2023-11-07T16:23:37.794Z,18.92
2023-11-07T16:28:41.832Z,18.93
2023-11-07T16:33:44.895Z,18.94
2023-11-07T16:38:49.312Z,18.95
2023-11-07T16:43:52.363Z,18.96
2023-11-07T16:48:55.343Z,18.97
2023-11-07T16:53:59.997Z,18.96
2023-11-07T16:59:02.888Z,18.96
2023-11-07T17:04:06.150Z,18.99
2023-11-07T17:09:10.907Z,19.07
2023-11-07T17:14:13.829Z,19.16
2023-11-07T17:19:17.226Z,19.22
2023-11-07T17:24:26.346Z,19.30
2023-11-07T17:29:30.297Z,19.38
2023-11-07T17:34:33.143Z,19.44
2023-11-07T17:39:39.161Z,19.48
2023-11-07T17:44:42.562Z,19.52
2023-11-07T17:49:47.802Z,19.54
2023-11-07T17:54:52.079Z,19.57
2023-11-07T17:59:55.454Z,19.58
2023-11-07T18:04:58.394Z,19.61
2023-11-07T18:10:02.886Z,19.64
2023-11-07T18:15:06.659Z,19.64
2023-11-07T18:20:13.083Z,19.66
2023-11-07T18:25:17.777Z,19.71
2023-11-07T18:30:21.062Z,19.78
2023-11-07T18:35:24.036Z,19.89
2023-11-07T18:40:28.400Z,19.95
2023-11-07T18:45:31.280Z,20.03
2023-11-07T18:50:34.316Z,20.08
2023-11-07T18:55:38.749Z,20.12
2023-11-07T19:00:43.499Z,20.14
2023-11-07T19:05:46.329Z,20.15
2023-11-07T19:10:50.649Z,20.14
2023-11-07T19:15:53.623Z,20.13
2023-11-07T19:20:56.520Z,20.14
2023-11-07T19:26:00.706Z,20.13
2023-11-07T19:31:04.086Z,20.13
2023-11-07T19:36:08.588Z,20.10
2023-11-07T19:41:13.640Z,20.12
2023-11-07T19:46:16.565Z,20.12
2023-11-07T19:51:19.602Z,20.10
2023-11-07T19:56:23.884Z,20.11
2023-11-07T20:01:26.679Z,20.11
2023-11-07T20:06:30.202Z,20.10
2023-11-07T20:11:36.135Z,20.10
2023-11-07T20:16:39.296Z,20.09
2023-11-07T20:21:42.361Z,20.09
2023-11-07T20:26:46.559Z,20.08
2023-11-07T20:31:49.434Z,20.08
2023-11-07T20:36:52.368Z,20.09
2023-11-07T20:41:56.567Z,20.14
2023-11-07T20:47:00.188Z,20.16
2023-11-07T20:52:09.453Z,20.20
2023-11-07T20:57:22.505Z,20.25
2023-11-07T21:02:26.342Z,20.29
2023-11-07T21:07:29.431Z,20.32
2023-11-07T21:12:34.137Z,20.35
2023-11-07T21:17:37.100Z,20.38
2023-11-07T21:22:40.263Z,20.42
2023-11-07T21:27:44.785Z,20.45
2023-11-07T21:32:47.791Z,20.47
2023-11-07T21:37:51.594Z,20.48
2023-11-07T21:42:55.778Z,20.53
2023-11-07T21:47:59.202Z,20.55
2023-11-07T21:53:02.163Z,20.58
2023-11-07T21:58:08.124Z,20.61
2023-11-07T22:03:12.898Z,20.64
2023-11-07T22:08:15.988Z,20.67
2023-11-07T22:13:21.653Z,20.68
2023-11-07T22:18:26.308Z,20.73
2023-11-07T22:23:29.413Z,20.75
2023-11-07T22:28:33.617Z,20.76
2023-11-07T22:33:36.508Z,20.79
2023-11-07T22:38:39.429Z,20.81
2023-11-07T22:43:43.710Z,20.83
2023-11-07T22:48:48.386Z,20.85
2023-11-07T22:53:51.223Z,20.88
2023-11-07T22:58:55.978Z,20.88
2023-11-07T23:03:58.764Z,20.86
2023-11-07T23:09:01.583Z,20.75
2023-11-07T23:14:06.013Z,20.66
2023-11-07T23:19:09.008Z,20.61
2023-11-07T23:24:12.083Z,20.57
2023-11-07T23:29:18.148Z,20.52
2023-11-07T23:34:21.261Z,20.46
2023-11-07T23:39:25.416Z,20.40
2023-11-07T23:44:29.677Z,20.34
2023-11-07T23:49:32.656Z,20.31
2023-11-07T23:54:35.497Z,20.29
2023-11-07T23:59:39.666Z,20.25
